Time;durP1;ratioP1;P1;durP2;ratioP2;P2;SDS_P1;SDS_P2;PMS_P1;PMS_P2;Temp;Humidity;BMP_temperature;BMP_pressure;BME280_temperature;BME280_humidity;BME280_pressure;Samples;Min_cycle;Max_cycle;Signal;HPM_P1;HPM_P2
2023/06/12 00:01:19;;;;;;;2.50;2.30;;;17.00;81.70;;;;;;5077521;28;20499;-76
2023/06/12 00:03:47;;;;;;;3.10;2.88;;;16.90;81.90;;;;;;5076049;28;20025;-77
2023/06/12 00:06:14;;;;;;;3.20;2.90;;;16.90;82.20;;;;;;5074883;28;20025;-77
2023/06/12 00:08:43;;;;;;;3.65;2.80;;;16.80;82.30;;;;;;5069393;28;20029;-76
2023/06/12 00:11:12;;;;;;;3.35;3.05;;;16.80;82.60;;;;;;5073069;28;20029;-76
2023/06/12 00:13:43;;;;;;;3.22;2.92;;;16.80;83.00;;;;;;5062841;28;20032;-77
2023/06/12 00:16:09;;;;;;;2.90;2.67;;;16.80;83.40;;;;;;5055523;28;20025;-78
2023/06/12 00:18:36;;;;;;;3.45;3.15;;;16.70;83.60;;;;;;5060768;28;20025;-78
2023/06/12 00:21:08;;;;;;;2.80;2.60;;;16.70;83.90;;;;;;5071430;28;20013;-76
2023/06/12 00:23:35;;;;;;;2.67;2.47;;;16.70;84.20;;;;;;5058194;28;20021;-76
2023/06/12 00:26:01;;;;;;;3.30;3.00;;;16.70;84.50;;;;;;5046488;28;20481;-77
2023/06/12 00:28:26;;;;;;;2.72;2.53;;;16.60;84.60;;;;;;5055116;28;20057;-76
2023/06/12 00:30:52;;;;;;;3.45;3.15;;;16.60;84.90;;;;;;5070285;28;20053;-76
2023/06/12 00:33:18;;;;;;;2.97;2.78;;;16.60;85.10;;;;;;5057161;28;20088;-75
2023/06/12 00:35:44;;;;;;;3.03;2.83;;;16.60;85.40;;;;;;5058603;28;20369;-77
2023/06/12 00:38:10;;;;;;;3.38;3.10;;;16.60;85.70;;;;;;5084687;28;20025;-76
2023/06/12 00:40:37;;;;;;;3.00;2.80;;;16.50;86.00;;;;;;5088522;28;20036;-77
2023/06/12 00:43:02;;;;;;;2.70;2.50;;;16.50;86.40;;;;;;5060392;28;20092;-75
2023/06/12 00:45:28;;;;;;;2.78;2.58;;;16.50;86.70;;;;;;5068608;28;20055;-77
2023/06/12 00:47:57;;;;;;;2.78;2.58;;;16.50;86.90;;;;;;5087727;28;20024;-77
2023/06/12 00:50:27;;;;;;;3.08;2.88;;;16.50;87.10;;;;;;5092362;28;20032;-77
2023/06/12 00:52:55;;;;;;;2.55;2.35;;;16.40;87.20;;;;;;5095760;28;20028;-75
2023/06/12 00:55:21;;;;;;;3.20;2.90;;;16.40;87.40;;;;;;5095173;28;20053;-77
2023/06/12 00:57:48;;;;;;;2.90;2.70;;;16.40;87.60;;;;;;5095712;28;20247;-76
2023/06/12 01:00:17;;;;;;;3.72;3.42;;;16.40;87.90;;;;;;5037914;28;20021;-77
2023/06/12 01:02:50;;;;;;;3.83;3.42;;;16.30;88.00;;;;;;5054365;28;20048;-77
2023/06/12 01:05:19;;;;;;;4.53;4.05;;;16.30;88.40;;;;;;5038233;28;20041;-77
2023/06/12 01:07:48;;;;;;;4.40;4.05;;;16.30;88.80;;;;;;5035873;28;20027;-76
2023/06/12 01:10:37;;;;;;;3.38;3.13;;;16.20;89.30;;;;;;5065481;28;20089;-76
2023/06/12 01:13:03;;;;;;;3.83;3.50;;;16.20;89.60;;;;;;5074346;28;20021;-77
2023/06/12 01:15:29;;;;;;;3.50;3.22;;;16.10;89.90;;;;;;5067724;28;20045;-76
2023/06/12 01:17:58;;;;;;;3.65;3.35;;;16.10;90.10;;;;;;5036409;28;20095;-77
2023/06/12 01:20:24;;;;;;;2.65;2.45;;;16.10;90.30;;;;;;5077386;28;20038;-76
2023/06/12 01:23:27;;;;;;;3.10;2.90;;;16.10;90.40;;;;;;5094140;28;20095;-76
2023/06/12 01:26:10;;;;;;;2.60;2.40;;;16.10;90.50;;;;;;5092930;28;20496;-78
2023/06/12 01:28:37;;;;;;;2.60;2.40;;;16.10;90.60;;;;;;5074513;28;20028;-77
2023/06/12 01:31:15;;;;;;;3.33;2.85;;;16.10;90.80;;;;;;5093685;28;20024;-77
2023/06/12 01:33:47;;;;;;;4.28;2.80;;;16.10;90.70;;;;;;5072041;28;20090;-75
2023/06/12 01:36:14;;;;;;;;;;;16.00;90.70;;;;;;5073031;28;20025;-78
2023/06/12 01:38:44;;;;;;;3.42;3.20;;;16.00;90.80;;;;;;5054025;28;19913;-77
2023/06/12 01:41:10;;;;;;;3.85;3.50;;;15.90;90.90;;;;;;5055448;28;20028;-76
2023/06/12 01:43:36;;;;;;;5.13;3.65;;;15.90;90.90;;;;;;5054515;28;20130;-77
2023/06/12 01:46:03;;;;;;;4.07;3.67;;;15.90;91.10;;;;;;5054101;28;20016;-76
2023/06/12 01:48:29;;;;;;;3.63;3.33;;;15.90;91.20;;;;;;5051503;28;20039;-77
2023/06/12 01:50:55;;;;;;;4.20;3.80;;;15.90;91.30;;;;;;5065880;28;20480;-77
2023/06/12 01:53:21;;;;;;;3.95;3.55;;;15.80;91.30;;;;;;5093004;28;20043;-77
2023/06/12 01:55:49;;;;;;;4.15;3.72;;;15.80;91.40;;;;;;5036489;28;20029;-76
2023/06/12 01:58:16;;;;;;;3.45;3.15;;;15.80;91.50;;;;;;5052562;28;20025;-77
2023/06/12 02:00:42;;;;;;;3.53;3.33;;;15.70;91.60;;;;;;5054100;28;20028;-76
2023/06/12 02:03:08;;;;;;;4.10;3.70;;;15.70;91.70;;;;;;5035986;28;20029;-75
2023/06/12 02:05:34;;;;;;;3.80;3.47;;;15.70;91.80;;;;;;5039814;28;20035;-77
2023/06/12 02:08:03;;;;;;;4.03;3.60;;;15.70;91.90;;;;;;5059318;28;20036;-78
2023/06/12 02:10:29;;;;;;;4.18;3.83;;;15.60;92.00;;;;;;5060314;28;20033;-78
2023/06/12 02:12:54;;;;;;;4.25;3.38;;;15.60;92.10;;;;;;5072466;28;20028;-77
2023/06/12 02:15:20;;;;;;;3.95;3.63;;;15.60;92.20;;;;;;5072287;28;20020;-79
2023/06/12 02:17:46;;;;;;;4.15;3.85;;;15.60;92.30;;;;;;5074951;28;20055;-78
2023/06/12 02:20:12;;;;;;;4.78;3.92;;;15.60;92.30;;;;;;5081845;28;20377;-77
2023/06/12 02:22:38;;;;;;;4.13;3.72;;;15.60;92.40;;;;;;5077998;28;20040;-77
2023/06/12 02:25:04;;;;;;;3.72;3.42;;;15.60;92.50;;;;;;5072923;28;20374;-78
2023/06/12 02:27:29;;;;;;;3.35;3.05;;;15.60;92.60;;;;;;5074167;28;20114;-78
2023/06/12 02:29:55;;;;;;;3.97;3.67;;;15.60;92.60;;;;;;5074780;28;20048;-78
2023/06/12 02:32:21;;;;;;;5.20;4.00;;;15.60;92.70;;;;;;5072461;28;20103;-78
2023/06/12 02:34:47;;;;;;;3.95;3.60;;;15.50;92.70;;;;;;5073499;28;20040;-78
2023/06/12 02:37:12;;;;;;;4.15;3.75;;;15.60;92.90;;;;;;5057639;28;20431;-78
2023/06/12 02:39:38;;;;;;;3.20;2.97;;;15.50;92.90;;;;;;5077380;28;20036;-77
2023/06/12 02:42:04;;;;;;;3.40;3.10;;;15.50;93.00;;;;;;5087501;28;20040;-77
2023/06/12 02:44:30;;;;;;;3.47;3.17;;;15.50;93.20;;;;;;5067148;28;20048;-78
2023/06/12 02:46:59;;;;;;;3.28;2.97;;;15.50;93.30;;;;;;5077792;28;20096;-78
2023/06/12 02:49:27;;;;;;;3.22;3.03;;;15.50;93.30;;;;;;5081138;28;20038;-77
2023/06/12 02:51:53;;;;;;;3.78;3.47;;;15.50;93.40;;;;;;5086494;28;20099;-78
2023/06/12 02:54:22;;;;;;;3.22;2.92;;;15.50;93.40;;;;;;5094752;28;20038;-78
2023/06/12 02:56:48;;;;;;;2.95;2.72;;;15.50;93.40;;;;;;5075238;28;20028;-75
2023/06/12 02:59:22;;;;;;;3.53;3.25;;;15.50;93.40;;;;;;5050189;28;20029;-75
2023/06/12 03:01:48;;;;;;;3.72;3.42;;;15.50;93.40;;;;;;5068504;28;20211;-76
2023/06/12 03:04:16;;;;;;;3.08;2.88;;;15.50;93.50;;;;;;5068793;28;20144;-77
2023/06/12 03:06:44;;;;;;;3.75;3.42;;;15.50;93.60;;;;;;5068791;28;20017;-75
2023/06/12 03:09:11;;;;;;;3.97;3.63;;;15.40;93.60;;;;;;5069164;28;20035;-74
2023/06/12 03:11:37;;;;;;;4.15;3.80;;;15.40;93.70;;;;;;5069561;28;20638;-76
2023/06/12 03:14:05;;;;;;;4.30;3.90;;;15.40;93.80;;;;;;5069933;28;20058;-75
2023/06/12 03:16:31;;;;;;;3.80;3.50;;;15.40;93.90;;;;;;5070276;28;20104;-76
2023/06/12 03:18:57;;;;;;;5.15;4.65;;;15.40;94.00;;;;;;5038357;28;20028;-76
2023/06/12 03:21:23;;;;;;;4.40;4.00;;;15.40;94.00;;;;;;5077081;28;20170;-76
2023/06/12 03:23:49;;;;;;;4.57;4.10;;;15.30;94.10;;;;;;5083011;28;20028;-75
2023/06/12 03:26:15;;;;;;;5.03;4.30;;;15.30;94.20;;;;;;5093891;28;20073;-76
2023/06/12 03:28:41;;;;;;;4.80;4.35;;;15.30;94.30;;;;;;5062689;28;20035;-75
2023/06/12 03:31:07;;;;;;;3.95;3.65;;;15.30;94.40;;;;;;5073562;28;20431;-75
2023/06/12 03:33:33;;;;;;;4.25;3.72;;;15.30;94.50;;;;;;5073895;28;20112;-75
2023/06/12 03:35:58;;;;;;;4.03;3.72;;;15.30;94.50;;;;;;5054892;28;20033;-76
2023/06/12 03:38:24;;;;;;;3.35;3.05;;;15.30;94.60;;;;;;5073898;28;20025;-75
2023/06/12 03:40:50;;;;;;;4.05;3.65;;;15.30;94.70;;;;;;5073813;28;20490;-74
2023/06/12 03:43:15;;;;;;;3.78;3.47;;;15.30;94.70;;;;;;5074060;28;20028;-76
2023/06/12 03:45:41;;;;;;;3.60;3.30;;;15.30;94.80;;;;;;5068289;28;20031;-76
2023/06/12 03:48:06;;;;;;;3.90;3.60;;;15.30;94.90;;;;;;5054771;28;20021;-76
2023/06/12 03:50:32;;;;;;;5.07;4.57;;;15.30;95.10;;;;;;5055754;28;20100;-75
2023/06/12 03:52:58;;;;;;;4.32;3.92;;;15.20;95.20;;;;;;5075459;28;20452;-76
2023/06/12 03:55:24;;;;;;;4.50;4.07;;;15.20;95.30;;;;;;5079586;28;20074;-76
2023/06/12 03:57:50;;;;;;;5.10;4.65;;;15.20;95.40;;;;;;5045204;28;20028;-76
2023/06/12 04:00:16;;;;;;;4.50;4.10;;;15.20;95.60;;;;;;5056427;28;20498;-76
2023/06/12 04:02:42;;;;;;;5.35;4.85;;;15.20;95.80;;;;;;5062660;28;20021;-76
2023/06/12 04:05:08;;;;;;;4.63;4.28;;;15.20;96.00;;;;;;5059830;28;20021;-75
2023/06/12 04:07:36;;;;;;;6.47;5.20;;;15.10;96.00;;;;;;5061011;28;20053;-75
2023/06/12 04:10:03;;;;;;;5.13;4.55;;;15.10;96.20;;;;;;5064130;28;20067;-75
2023/06/12 04:12:28;;;;;;;5.60;4.72;;;15.20;96.30;;;;;;5065554;28;20069;-75
2023/06/12 04:14:54;;;;;;;5.90;4.53;;;15.20;96.40;;;;;;5071713;28;20040;-75
2023/06/12 04:17:20;;;;;;;9.35;6.13;;;15.20;96.40;;;;;;5071748;28;20029;-74
2023/06/12 04:19:48;;;;;;;5.25;4.75;;;15.20;96.50;;;;;;5074092;28;20345;-76
2023/06/12 04:22:15;;;;;;;5.60;5.10;;;15.20;96.60;;;;;;5072761;28;20048;-76
2023/06/12 04:24:42;;;;;;;5.43;4.75;;;15.30;96.70;;;;;;5076215;28;20142;-75
2023/06/12 04:27:09;;;;;;;4.90;4.40;;;15.30;96.70;;;;;;5082417;28;20040;-76
2023/06/12 04:29:40;;;;;;;4.68;4.07;;;15.40;96.80;;;;;;5074379;28;20032;-75
2023/06/12 04:32:06;;;;;;;6.40;5.20;;;15.40;96.70;;;;;;5074418;28;20030;-77
2023/06/12 04:34:39;;;;;;;5.43;4.50;;;15.50;96.70;;;;;;5072830;28;20097;-76
2023/06/12 04:37:08;;;;;;;5.22;4.72;;;15.60;96.70;;;;;;5073540;28;20028;-76
2023/06/12 04:39:40;;;;;;;4.85;4.35;;;15.60;96.60;;;;;;5074087;28;20036;-76
2023/06/12 04:42:08;;;;;;;5.28;4.53;;;15.70;96.60;;;;;;5073197;28;20099;-76
2023/06/12 04:44:35;;;;;;;5.88;5.28;;;15.80;96.60;;;;;;5073191;28;20028;-76
2023/06/12 04:47:14;;;;;;;5.43;4.93;;;15.80;96.50;;;;;;5073543;28;20033;-77
2023/06/12 04:49:43;;;;;;;5.95;5.20;;;15.80;96.50;;;;;;5073810;28;20438;-76
2023/06/12 04:52:09;;;;;;;14.38;6.82;;;15.90;96.60;;;;;;5072506;28;20418;-76
2023/06/12 04:54:41;;;;;;;9.15;6.95;;;15.90;96.60;;;;;;5085254;28;20052;-77
2023/06/12 04:57:08;;;;;;;6.63;5.47;;;15.90;96.70;;;;;;5072879;28;20032;-76
2023/06/12 04:59:39;;;;;;;7.80;5.72;;;16.00;96.90;;;;;;5073484;28;20043;-76
2023/06/12 05:02:07;;;;;;;7.18;6.32;;;16.00;97.00;;;;;;5073113;28;20546;-76
2023/06/12 05:04:33;;;;;;;8.18;6.97;;;16.20;96.90;;;;;;5072593;28;20025;-77
2023/06/12 05:06:59;;;;;;;8.00;5.85;;;16.40;97.10;;;;;;5073503;28;20029;-76
2023/06/12 05:09:25;;;;;;;5.38;4.88;;;17.70;96.30;;;;;;5072860;28;20200;-76
2023/06/12 05:11:51;;;;;;;5.38;4.35;;;19.50;92.80;;;;;;5067015;28;20231;-77
2023/06/12 05:14:17;;;;;;;4.32;4.00;;;21.40;89.20;;;;;;5069564;28;20028;-76
2023/06/12 05:16:46;;;;;;;3.70;3.40;;;23.10;80.40;;;;;;5071584;28;20029;-76
2023/06/12 05:19:12;;;;;;;3.97;3.65;;;24.60;74.80;;;;;;5072556;28;20044;-77
2023/06/12 05:21:41;;;;;;;3.90;3.60;;;25.90;67.20;;;;;;5073525;28;20028;-76
2023/06/12 05:24:07;;;;;;;3.80;3.42;;;26.40;62.80;;;;;;5083264;28;20016;-77
2023/06/12 05:26:33;;;;;;;3.20;2.97;;;26.90;60.60;;;;;;5093456;28;20024;-76
2023/06/12 05:29:01;;;;;;;3.05;2.85;;;27.50;59.20;;;;;;5079076;28;20028;-77
2023/06/12 05:31:28;;;;;;;2.90;2.75;;;28.00;57.70;;;;;;5073741;28;20032;-77
2023/06/12 05:33:54;;;;;;;3.80;3.50;;;28.60;55.90;;;;;;5072757;28;20028;-77
2023/06/12 05:36:20;;;;;;;4.35;4.05;;;28.70;53.80;;;;;;5059505;28;20056;-77
2023/06/12 05:38:46;;;;;;;3.92;3.60;;;28.90;53.10;;;;;;5036045;28;20051;-77
2023/06/12 05:41:16;;;;;;;4.00;3.70;;;28.60;53.00;;;;;;5036502;28;20036;-76
2023/06/12 05:43:45;;;;;;;4.60;4.15;;;28.30;53.30;;;;;;5060349;28;20036;-77
2023/06/12 05:46:11;;;;;;;4.10;3.70;;;28.10;53.20;;;;;;5079956;28;20025;-76
2023/06/12 05:48:37;;;;;;;4.50;4.10;;;28.30;54.00;;;;;;5063732;28;20021;-77
2023/06/12 05:51:05;;;;;;;3.72;3.42;;;28.80;52.30;;;;;;5079742;28;20085;-76
2023/06/12 05:53:33;;;;;;;4.10;3.80;;;28.80;51.90;;;;;;5084507;28;20446;-75
2023/06/12 05:55:59;;;;;;;3.72;3.45;;;29.00;51.60;;;;;;5074259;28;20602;-76
2023/06/12 05:58:25;;;;;;;3.45;3.20;;;29.60;51.20;;;;;;5054778;28;20131;-76
2023/06/12 06:00:52;;;;;;;3.90;3.60;;;29.90;50.10;;;;;;5073774;28;20055;-76
2023/06/12 06:03:19;;;;;;;3.42;3.13;;;30.00;49.20;;;;;;5074644;28;20432;-76
2023/06/12 06:05:46;;;;;;;4.25;3.85;;;29.90;49.20;;;;;;5074160;28;20019;-76
2023/06/12 06:08:12;;;;;;;4.53;4.13;;;30.00;48.20;;;;;;5054903;28;20050;-76
2023/06/12 06:10:38;;;;;;;3.30;3.10;;;29.60;48.10;;;;;;5073810;28;20056;-77
2023/06/12 06:13:05;;;;;;;4.18;3.78;;;;;;;;;;5056116;28;20025;-76
2023/06/12 06:15:30;;;;;;;2.92;2.72;;;29.90;47.80;;;;;;5074681;28;20154;-76
2023/06/12 06:17:57;;;;;;;3.42;3.13;;;30.30;48.20;;;;;;5073619;28;20048;-77
2023/06/12 06:20:22;;;;;;;3.85;3.55;;;30.70;47.10;;;;;;5073591;28;20498;-77
2023/06/12 06:22:48;;;;;;;3.30;3.10;;;31.00;46.40;;;;;;5076944;28;20021;-77
2023/06/12 06:25:15;;;;;;;3.80;3.47;;;30.90;46.90;;;;;;5079803;28;20162;-76
2023/06/12 06:27:41;;;;;;;4.40;4.03;;;31.10;46.20;;;;;;5074892;28;20074;-77
2023/06/12 06:30:07;;;;;;;4.20;3.80;;;30.90;45.50;;;;;;5070913;28;20025;-77
2023/06/12 06:32:33;;;;;;;4.30;3.90;;;30.30;46.30;;;;;;5071736;28;20342;-77
2023/06/12 06:34:59;;;;;;;4.47;3.80;;;29.90;46.90;;;;;;5075880;28;20029;-76
2023/06/12 06:37:25;;;;;;;3.53;3.30;;;30.00;47.40;;;;;;5072740;28;20020;-77
2023/06/12 06:39:51;;;;;;;4.00;3.60;;;30.30;47.00;;;;;;5076669;28;20111;-78
2023/06/12 06:42:16;;;;;;;3.15;2.85;;;30.80;45.80;;;;;;5075744;28;20501;-76
2023/06/12 06:44:42;;;;;;;3.47;3.28;;;30.80;46.10;;;;;;5093023;28;20040;-78
2023/06/12 06:47:10;;;;;;;4.25;3.85;;;31.10;45.50;;;;;;5064995;28;20075;-76
2023/06/12 06:49:37;;;;;;;5.78;4.80;;;30.70;45.30;;;;;;5070976;28;20025;-78
2023/06/12 06:52:03;;;;;;;5.07;4.68;;;30.00;45.60;;;;;;5054719;28;20024;-77
2023/06/12 06:54:29;;;;;;;4.25;3.95;;;29.40;47.30;;;;;;5102131;28;20058;-78
2023/06/12 06:56:56;;;;;;;3.40;3.20;;;29.40;48.00;;;;;;5100814;28;20028;-77
2023/06/12 06:59:22;;;;;;;4.55;4.15;;;29.70;47.20;;;;;;5063240;28;20381;-77
2023/06/12 07:01:48;;;;;;;5.10;4.10;;;29.90;47.00;;;;;;5053934;28;20056;-77
2023/06/12 07:04:14;;;;;;;4.25;3.78;;;30.00;45.90;;;;;;5075020;28;20506;-77
2023/06/12 07:06:40;;;;;;;3.97;3.67;;;29.60;46.50;;;;;;5076637;28;20021;-77
2023/06/12 07:09:07;;;;;;;3.97;3.67;;;29.50;47.40;;;;;;5066746;28;20108;-77
2023/06/12 07:11:33;;;;;;;4.25;3.95;;;29.60;46.60;;;;;;5042118;28;20028;-78
2023/06/12 07:13:59;;;;;;;5.15;4.40;;;29.40;47.10;;;;;;5059527;28;20096;-78
2023/06/12 07:16:25;;;;;;;4.82;4.35;;;29.20;46.60;;;;;;5040642;28;20061;-78
2023/06/12 07:18:51;;;;;;;5.57;4.30;;;28.60;46.60;;;;;;5058185;28;20025;-76
2023/06/12 07:21:17;;;;;;;4.85;3.95;;;;;;;;;;5062007;28;20115;-77
2023/06/12 07:23:43;;;;;;;3.65;3.35;;;24.80;51.80;;;;;;5080682;28;20025;-77
2023/06/12 07:26:09;;;;;;;3.53;3.22;;;23.90;54.50;;;;;;5080199;28;20028;-78
2023/06/12 07:28:35;;;;;;;3.63;3.33;;;23.00;56.70;;;;;;5090156;28;20016;-76
2023/06/12 07:31:01;;;;;;;5.85;4.03;;;22.30;58.80;;;;;;5067513;28;20043;-77
2023/06/12 07:33:27;;;;;;;5.85;5.25;;;21.80;60.70;;;;;;5057264;28;20029;-77
2023/06/12 07:35:53;;;;;;;5.20;4.75;;;21.40;62.30;;;;;;5040754;28;20048;-78
2023/06/12 07:38:19;;;;;;;4.95;4.50;;;21.00;63.90;;;;;;5061896;28;20052;-76
2023/06/12 07:40:45;;;;;;;5.18;4.43;;;20.80;64.80;;;;;;5060739;28;20048;-78
2023/06/12 07:43:11;;;;;;;8.40;5.03;;;20.70;65.60;;;;;;5057092;28;20029;-76
2023/06/12 07:45:37;;;;;;;5.18;4.68;;;20.70;65.80;;;;;;5057084;28;20028;-77
2023/06/12 07:48:03;;;;;;;6.28;5.07;;;20.70;66.10;;;;;;5057903;28;20248;-77
2023/06/12 07:50:28;;;;;;;5.45;4.50;;;20.90;66.00;;;;;;5039445;28;20013;-77
2023/06/12 07:52:54;;;;;;;5.78;4.35;;;20.90;65.10;;;;;;5059117;28;20020;-78
2023/06/12 07:55:20;;;;;;;6.70;5.38;;;20.70;65.80;;;;;;5083158;28;20027;-77
2023/06/12 07:57:47;;;;;;;9.02;4.65;;;20.70;65.70;;;;;;5062840;28;20096;-76
2023/06/12 08:00:13;;;;;;;5.30;4.55;;;20.60;65.90;;;;;;5081784;28;20025;-76
2023/06/12 08:02:40;;;;;;;5.25;4.53;;;20.70;66.20;;;;;;5061772;28;20025;-77
2023/06/12 08:05:07;;;;;;;5.35;4.82;;;20.80;66.00;;;;;;5075174;28;20031;-77
2023/06/12 08:07:33;;;;;;;5.53;3.80;;;20.90;66.10;;;;;;5080035;28;20016;-76
2023/06/12 08:09:59;;;;;;;4.22;3.83;;;;;;;;;;5079144;28;20021;-77
2023/06/12 08:12:25;;;;;;;3.80;3.50;;;21.10;65.40;;;;;;5059022;28;20170;-78
2023/06/12 08:14:51;;;;;;;7.90;4.55;;;21.40;65.50;;;;;;5075127;28;20060;-76
2023/06/12 08:17:17;;;;;;;6.53;4.82;;;21.40;64.90;;;;;;5075664;28;20028;-76
2023/06/12 08:19:43;;;;;;;7.95;5.13;;;21.40;64.40;;;;;;5062155;28;20115;-76
2023/06/12 08:22:09;;;;;;;6.10;4.97;;;21.30;64.80;;;;;;5065155;28;20082;-77
2023/06/12 08:24:38;;;;;;;4.43;4.03;;;21.20;65.30;;;;;;5089735;28;20084;-78
2023/06/12 08:27:04;;;;;;;9.35;4.90;;;21.20;65.40;;;;;;5080021;28;20020;-77
2023/06/12 08:29:30;;;;;;;5.93;4.57;;;21.30;65.10;;;;;;5100656;28;20027;-76
2023/06/12 08:31:56;;;;;;;5.75;4.43;;;21.40;65.20;;;;;;5100323;28;20279;-78
2023/06/12 08:34:25;;;;;;;5.20;4.80;;;21.40;65.00;;;;;;5096804;28;20032;-77
2023/06/12 08:36:53;;;;;;;5.30;4.22;;;21.50;63.90;;;;;;5049846;28;20040;-79
2023/06/12 08:39:19;;;;;;;4.53;4.13;;;21.50;64.50;;;;;;5081787;28;20127;-77
2023/06/12 08:42:10;;;;;;;5.35;4.28;;;21.50;64.20;;;;;;5071086;28;20046;-78
2023/06/12 08:44:35;;;;;;;4.35;3.90;;;21.80;63.70;;;;;;5079861;28;20081;-77
2023/06/12 08:47:03;;;;;;;7.38;3.78;;;21.90;63.30;;;;;;5058907;28;20025;-76
2023/06/12 08:49:32;;;;;;;6.53;4.13;;;21.80;63.20;;;;;;5077366;28;20020;-77
2023/06/12 08:52:00;;;;;;;4.50;4.10;;;21.90;62.90;;;;;;5073031;28;20025;-78
2023/06/12 08:54:26;;;;;;;4.63;4.07;;;21.90;62.80;;;;;;5079047;28;20085;-77
2023/06/12 08:56:56;;;;;;;5.15;4.10;;;22.10;62.30;;;;;;5097182;28;20369;-78
2023/06/12 08:59:21;;;;;;;4.68;4.28;;;22.20;61.80;;;;;;5098351;28;20034;-76
2023/06/12 09:01:53;;;;;;;4.75;3.70;;;22.20;60.70;;;;;;5099888;28;20055;-77
2023/06/12 09:04:37;;;;;;;6.60;3.40;;;22.20;60.80;;;;;;5079194;28;20117;-77
2023/06/12 09:07:03;;;;;;;4.43;3.95;;;22.20;60.30;;;;;;5096814;28;20108;-77
2023/06/12 09:09:40;;;;;;;3.78;3.45;;;22.40;60.40;;;;;;5076874;28;20565;-77
2023/06/12 09:12:10;;;;;;;4.28;3.42;;;22.70;59.50;;;;;;5076791;28;20370;-76
2023/06/12 09:14:36;;;;;;;6.57;3.85;;;22.90;58.40;;;;;;5055787;28;20024;-76
2023/06/12 09:17:03;;;;;;;3.92;3.63;;;23.10;58.20;;;;;;5077838;28;20066;-77
2023/06/12 09:19:48;;;;;;;3.75;3.45;;;23.30;57.50;;;;;;5080277;28;20025;-77
2023/06/12 09:22:14;;;;;;;4.03;3.63;;;23.30;56.30;;;;;;5084182;28;20032;-78
2023/06/12 09:24:41;;;;;;;4.63;3.30;;;23.40;55.20;;;;;;5082298;28;20029;-78
2023/06/12 09:27:07;;;;;;;6.68;3.58;;;23.40;55.30;;;;;;5039732;28;20024;-79
2023/06/12 09:29:35;;;;;;;4.15;3.80;;;23.50;55.30;;;;;;5040932;28;20035;-78
2023/06/12 09:32:02;;;;;;;4.15;3.30;;;23.50;54.80;;;;;;5058395;28;20029;-79
2023/06/12 09:34:30;;;;;;;3.40;3.05;;;23.60;55.20;;;;;;5058085;28;20453;-78
2023/06/12 09:36:56;;;;;;;4.97;3.40;;;23.80;54.80;;;;;;5061147;28;20029;-79
2023/06/12 09:39:26;;;;;;;5.07;3.35;;;23.80;54.10;;;;;;5060246;28;20033;-78
2023/06/12 09:41:53;;;;;;;4.03;3.58;;;23.90;54.30;;;;;;5057693;28;20108;-78
2023/06/12 09:44:23;;;;;;;3.72;3.17;;;23.80;53.60;;;;;;5037668;28;20040;-79
2023/06/12 09:46:52;;;;;;;4.10;3.70;;;23.90;53.90;;;;;;5056077;28;20077;-78
2023/06/12 09:49:23;;;;;;;3.42;3.10;;;23.80;53.50;;;;;;5055558;28;20535;-77
2023/06/12 09:51:51;;;;;;;3.92;3.63;;;23.80;53.10;;;;;;5064288;28;20123;-78
2023/06/12 09:54:19;;;;;;;3.90;3.50;;;23.80;53.20;;;;;;5087666;28;20028;-80
2023/06/12 09:56:46;;;;;;;4.32;3.00;;;23.80;52.10;;;;;;5097008;28;20024;-78
2023/06/12 09:59:19;;;;;;;3.53;3.00;;;;;;;;;;5072559;28;20152;-79
2023/06/12 10:01:51;;;;;;;3.20;2.72;;;24.00;51.60;;;;;;5054184;28;20397;-77
2023/06/12 10:04:46;;;;;;;3.40;3.08;;;24.10;51.10;;;;;;5054841;28;20028;-77
2023/06/12 10:07:18;;;;;;;3.85;3.55;;;24.10;50.20;;;;;;5054856;28;20021;-78
2023/06/12 10:09:46;;;;;;;3.72;3.42;;;24.00;50.30;;;;;;5054053;28;20073;-77
2023/06/12 10:12:12;;;;;;;3.20;3.00;;;24.10;50.70;;;;;;5054703;28;20386;-77
2023/06/12 10:14:39;;;;;;;3.65;3.33;;;24.10;49.90;;;;;;5052877;28;20123;-77
2023/06/12 10:17:06;;;;;;;3.50;3.20;;;24.40;49.80;;;;;;5054446;28;20033;-77
2023/06/12 10:19:32;;;;;;;3.53;3.22;;;24.40;49.20;;;;;;5035370;28;20033;-78
2023/06/12 10:22:01;;;;;;;3.78;3.33;;;24.30;48.70;;;;;;5065095;28;20024;-77
2023/06/12 10:24:27;;;;;;;4.15;3.17;;;24.10;48.80;;;;;;5085581;28;20039;-78
2023/06/12 10:26:54;;;;;;;5.03;3.17;;;23.90;49.10;;;;;;5079320;28;20052;-78
2023/06/12 10:29:39;;;;;;;3.33;2.97;;;24.00;49.70;;;;;;5078903;28;20165;-78
2023/06/12 10:32:06;;;;;;;4.75;3.00;;;24.20;48.50;;;;;;5047395;28;20020;-78
2023/06/12 10:34:34;;;;;;;3.70;2.90;;;24.30;48.50;;;;;;5064452;28;20120;-78
2023/06/12 10:37:24;;;;;;;2.72;2.53;;;24.50;48.30;;;;;;5075065;28;20064;-78
2023/06/12 10:40:06;;;;;;;4.25;2.95;;;24.60;47.90;;;;;;5078687;28;20036;-77
2023/06/12 10:43:01;;;;;;;3.22;2.95;;;25.00;47.40;;;;;;5075703;28;20511;-78
2023/06/12 10:45:36;;;;;;;3.85;3.50;;;25.40;47.10;;;;;;5060588;28;20021;-76
2023/06/12 10:48:07;;;;;;;3.67;3.15;;;25.50;46.10;;;;;;5064781;28;20021;-76
2023/06/12 10:50:58;;;;;;;3.78;3.38;;;25.40;46.30;;;;;;5065551;28;20028;-76
2023/06/12 10:53:29;;;;;;;3.25;2.97;;;25.40;45.70;;;;;;5081880;28;20092;-77
2023/06/12 10:56:06;;;;;;;3.88;3.58;;;24.80;46.90;;;;;;5080937;28;20023;-79
2023/06/12 10:58:42;;;;;;;3.50;3.03;;;24.80;47.10;;;;;;5081016;28;20035;-77
2023/06/12 11:01:14;;;;;;;3.47;2.95;;;;;;;;;;5078740;28;20036;-79
2023/06/12 11:03:44;;;;;;;3.03;2.72;;;25.10;46.50;;;;;;5060570;28;20092;-79
2023/06/12 11:06:15;;;;;;;6.32;3.05;;;25.40;46.50;;;;;;5058197;28;20385;-77
2023/06/12 11:08:42;;;;;;;3.50;3.20;;;25.60;46.30;;;;;;5057473;28;20024;-79
2023/06/12 11:11:12;;;;;;;5.00;2.90;;;25.50;45.60;;;;;;5053433;28;20029;-77
2023/06/12 11:13:42;;;;;;;4.72;3.28;;;;;;;;;;5040561;28;20039;-79
2023/06/12 11:16:13;;;;;;;3.13;2.83;;;25.40;43.60;;;;;;5056886;28;20036;-78
2023/06/12 11:18:42;;;;;;;3.58;3.28;;;25.30;44.70;;;;;;5040529;28;20025;-79
2023/06/12 11:21:10;;;;;;;3.17;2.72;;;25.10;44.70;;;;;;5069190;28;20165;-79
2023/06/12 11:23:38;;;;;;;3.47;3.17;;;25.10;45.30;;;;;;5077177;28;20096;-78
2023/06/12 11:26:07;;;;;;;2.67;2.47;;;;;;;;;;5062316;28;20361;-79
2023/06/12 11:28:33;;;;;;;4.13;3.20;;;25.90;44.40;;;;;;5089146;28;20020;-77
2023/06/12 11:31:02;;;;;;;2.95;2.72;;;;;;;;;;5097332;28;20020;-77
2023/06/12 11:33:32;;;;;;;4.45;3.88;;;26.10;44.60;;;;;;5097370;28;20024;-79
2023/06/12 11:35:59;;;;;;;3.03;2.80;;;;;;;;;;5095172;28;20096;-77
2023/06/12 11:38:25;;;;;;;5.38;3.63;;;;;;;;;;5062641;28;20207;-76
2023/06/12 11:40:53;;;;;;;3.08;2.88;;;;;;;;;;5056910;28;20052;-77
2023/06/12 11:43:21;;;;;;;3.85;3.42;;;25.60;45.10;;;;;;5037862;28;20440;-77
2023/06/12 11:45:48;;;;;;;4.47;3.55;;;;;;;;;;5057664;28;20392;-78
2023/06/12 11:48:16;;;;;;;6.90;3.42;;;25.40;44.80;;;;;;5042134;28;20025;-75
2023/06/12 11:50:48;;;;;;;3.00;2.80;;;25.40;46.00;;;;;;5062253;28;20414;-77
2023/06/12 11:53:15;;;;;;;5.72;3.60;;;25.40;45.90;;;;;;5063052;28;20071;-77
2023/06/12 11:55:42;;;;;;;4.50;3.30;;;;;;;;;;5064041;28;20025;-76
2023/06/12 11:58:07;;;;;;;3.13;2.85;;;25.50;44.60;;;;;;5090608;28;20044;-76
2023/06/12 12:00:40;;;;;;;2.70;2.50;;;25.70;45.30;;;;;;5083305;28;20028;-76
2023/06/12 12:03:08;;;;;;;4.43;3.10;;;26.10;45.00;;;;;;5080709;28;20012;-76
2023/06/12 12:05:37;;;;;;;4.00;3.22;;;26.10;43.90;;;;;;5082115;28;20055;-77
2023/06/12 12:08:05;;;;;;;3.92;3.00;;;25.80;44.50;;;;;;5080551;28;20032;-77
2023/06/12 12:10:33;;;;;;;4.95;3.33;;;25.70;45.20;;;;;;5077709;28;20035;-77
2023/06/12 12:13:00;;;;;;;3.22;2.92;;;;;;;;;;5061304;28;20099;-76
2023/06/12 12:15:30;;;;;;;3.50;3.30;;;;;;;;;;5091063;28;20040;-77
2023/06/12 12:17:57;;;;;;;3.20;2.92;;;25.60;44.40;;;;;;5092968;28;20084;-76
2023/06/12 12:20:25;;;;;;;4.53;3.47;;;25.50;45.10;;;;;;5091607;28;20063;-77
2023/06/12 12:22:53;;;;;;;3.10;2.80;;;25.50;45.20;;;;;;5085237;28;20046;-77
2023/06/12 12:25:28;;;;;;;3.10;2.80;;;25.60;45.50;;;;;;5063556;28;20032;-78
2023/06/12 12:27:55;;;;;;;3.38;2.60;;;25.90;45.50;;;;;;5078673;28;20028;-79
2023/06/12 12:30:22;;;;;;;5.40;3.20;;;26.10;44.20;;;;;;5059294;28;20025;-78
2023/06/12 12:32:49;;;;;;;3.08;2.67;;;;;;;;;;5083387;28;20028;-77
2023/06/12 12:35:15;;;;;;;3.83;3.53;;;;;;;;;;5069421;28;20025;-79
2023/06/12 12:37:43;;;;;;;5.80;3.40;;;26.10;42.90;;;;;;5088559;28;20033;-78
2023/06/12 12:40:10;;;;;;;3.47;3.00;;;26.00;43.60;;;;;;5084311;28;20032;-76
2023/06/12 12:42:37;;;;;;;3.50;3.20;;;;;;;;;;5066983;28;20036;-78
2023/06/12 12:45:03;;;;;;;2.95;2.75;;;25.80;42.90;;;;;;5076260;28;20032;-78
2023/06/12 12:47:29;;;;;;;3.53;3.10;;;;;;;;;;5085088;28;20016;-79
2023/06/12 12:49:55;;;;;;;3.15;2.60;;;;;;;;;;5081993;28;20021;-78
2023/06/12 12:52:21;;;;;;;4.18;3.10;;;;;;;;;;5084378;28;20541;-77
2023/06/12 12:54:47;;;;;;;4.03;3.22;;;25.80;42.00;;;;;;5082286;28;20080;-78
2023/06/12 12:57:14;;;;;;;3.35;2.75;;;;;;;;;;5099907;28;20062;-79
2023/06/12 12:59:41;;;;;;;3.33;2.97;;;;;;;;;;5074199;28;20092;-77